createdAt,value
2023-03-05T00:01:10.852Z,98621.03
2023-03-05T00:03:37.938Z,98615.09
2023-03-05T00:06:05.577Z,98623.75
2023-03-05T00:08:33.072Z,98629.78
2023-03-05T00:11:07.902Z,98627.16
2023-03-05T00:13:35.112Z,98622.94
2023-03-05T00:16:10.740Z,98621.16
2023-03-05T00:18:38.192Z,98620.28
2023-03-05T00:21:17.243Z,98619.41
2023-03-05T00:23:44.222Z,98616.75
2023-03-05T00:26:10.807Z,98616.81
2023-03-05T00:28:37.358Z,98615.00
2023-03-05T00:31:04.185Z,98612.53
2023-03-05T00:33:30.881Z,98610.00
2023-03-05T00:35:57.989Z,98608.19
2023-03-05T00:38:24.694Z,98602.22
2023-03-05T00:40:51.701Z,98609.16
2023-03-05T00:43:18.258Z,98600.50
2023-03-05T00:45:44.797Z,98593.56
2023-03-05T00:48:11.381Z,98601.28
2023-03-05T00:50:38.077Z,98587.47
2023-03-05T00:53:04.851Z,98593.50
2023-03-05T00:55:31.654Z,98583.25
2023-03-05T00:57:58.350Z,98578.84
2023-03-05T01:00:25.106Z,98577.84
2023-03-05T01:02:51.763Z,98583.13
2023-03-05T01:05:18.444Z,98578.81
2023-03-05T01:07:45.041Z,98579.66
2023-03-05T01:10:12.973Z,98563.22
2023-03-05T01:12:39.844Z,98562.31
2023-03-05T01:15:07.015Z,98557.91
2023-03-05T01:17:34.629Z,98557.97
2023-03-05T01:20:01.439Z,98557.97
2023-03-05T01:22:28.124Z,98564.88
2023-03-05T01:24:54.946Z,98550.19
2023-03-05T01:27:21.667Z,98547.59
2023-03-05T01:29:48.311Z,98547.53
2023-03-05T01:32:15.018Z,98555.38
2023-03-05T01:34:42.226Z,98548.50
2023-03-05T01:37:09.523Z,98536.44
2023-03-05T01:39:36.542Z,98543.31
2023-03-05T01:42:04.449Z,98542.44
2023-03-05T01:44:32.234Z,98547.59
2023-03-05T01:46:58.919Z,98539.84
2023-03-05T01:49:38.532Z,98541.53
2023-03-05T01:52:17.653Z,98536.28
2023-03-05T01:54:52.250Z,98529.47
2023-03-05T01:57:44.559Z,98535.50
2023-03-05T02:00:17.731Z,98530.31
2023-03-05T02:02:49.051Z,98526.97
2023-03-05T02:05:27.229Z,98520.06
2023-03-05T02:07:59.281Z,98518.34
2023-03-05T02:10:29.595Z,98518.28
2023-03-05T02:12:59.296Z,98511.41
2023-03-05T02:15:25.921Z,98512.28
2023-03-05T02:17:52.669Z,98515.69
2023-03-05T02:20:22.992Z,98509.72
2023-03-05T02:22:49.531Z,98501.09
2023-03-05T02:25:24.781Z,98501.16
2023-03-05T02:28:00.308Z,98493.31
2023-03-05T02:30:27.055Z,98495.91
2023-03-05T02:32:53.828Z,98488.13
2023-03-05T02:35:21.134Z,98480.44
2023-03-05T02:37:47.895Z,98476.09
2023-03-05T02:40:15.358Z,98477.84
2023-03-05T02:42:42.593Z,98470.06
2023-03-05T02:45:10.747Z,98470.84
2023-03-05T02:47:37.745Z,98473.38
2023-03-05T02:50:06.358Z,98471.78
2023-03-05T02:52:33.061Z,98463.16
2023-03-05T02:54:59.796Z,98469.19
2023-03-05T02:57:26.365Z,98473.44
2023-03-05T02:59:54.478Z,98463.09
2023-03-05T03:02:21.363Z,98460.56
2023-03-05T03:04:50.500Z,98459.78
2023-03-05T03:10:08.846Z,98461.41
2023-03-05T03:12:44.053Z,98454.44
2023-03-05T03:15:13.364Z,98453.59
2023-03-05T03:17:40.439Z,98457.13
2023-03-05T03:20:09.493Z,98450.19
2023-03-05T03:22:36.476Z,98456.16
2023-03-05T03:25:05.012Z,98450.03
2023-03-05T03:27:31.822Z,98453.47
2023-03-05T03:30:02.706Z,98449.19
2023-03-05T03:32:29.688Z,98452.56
2023-03-05T03:34:56.291Z,98448.22
2023-03-05T03:37:23.138Z,98439.66
2023-03-05T03:39:49.733Z,98452.56
2023-03-05T03:42:21.400Z,98443.06
2023-03-05T03:44:48.234Z,98447.28
2023-03-05T03:47:14.996Z,98440.34
2023-03-05T03:49:41.744Z,98443.91
2023-03-05T03:52:08.377Z,98438.69
2023-03-05T03:54:34.994Z,98431.72
2023-03-05T03:57:01.616Z,98437.84
2023-03-05T03:59:28.499Z,98429.19
2023-03-05T04:01:55.400Z,98430.16
2023-03-05T04:04:21.993Z,98421.38
2023-03-05T04:06:48.752Z,98417.94
2023-03-05T04:09:15.400Z,98417.06
2023-03-05T04:11:42.045Z,98419.53
2023-03-05T04:14:08.687Z,98416.16
2023-03-05T04:16:35.362Z,98415.25
2023-03-05T04:19:02.083Z,98410.06
2023-03-05T04:21:29.738Z,98409.22
2023-03-05T04:23:56.380Z,98409.25
2023-03-05T04:26:23.056Z,98401.53
2023-03-05T04:28:49.732Z,98405.84
2023-03-05T04:31:17.423Z,98394.59
2023-03-05T04:33:44.213Z,98396.31
2023-03-05T04:36:10.841Z,98396.34
2023-03-05T04:38:37.541Z,98395.63
2023-03-05T04:41:04.363Z,98391.31
2023-03-05T04:43:31.062Z,98394.75
2023-03-05T04:45:57.768Z,98385.25
2023-03-05T04:48:24.503Z,98387.78
2023-03-05T04:50:51.212Z,98384.47
2023-03-05T04:53:18.165Z,98375.69
2023-03-05T04:55:44.979Z,98376.56
2023-03-05T04:58:11.550Z,98374.84
2023-03-05T05:00:38.945Z,98367.19
2023-03-05T05:03:05.723Z,98373.16
2023-03-05T05:05:32.311Z,98367.13
2023-03-05T05:07:59.188Z,98361.94
2023-03-05T05:10:26.218Z,98363.66
2023-03-05T05:12:53.044Z,98360.22
2023-03-05T05:15:19.840Z,98361.06
2023-03-05T05:17:46.693Z,98354.13
2023-03-05T05:20:14.685Z,98352.44
2023-03-05T05:22:41.564Z,98355.03
2023-03-05T05:25:08.928Z,98348.13
2023-03-05T05:27:35.538Z,98353.25
2023-03-05T05:30:02.901Z,98354.19
2023-03-05T05:32:29.807Z,98349.78
2023-03-05T05:34:59.645Z,98347.13
2023-03-05T05:37:27.417Z,98353.25
2023-03-05T05:39:54.323Z,98351.50
2023-03-05T05:42:24.062Z,98348.84
2023-03-05T05:44:50.806Z,98365.31
2023-03-05T05:47:18.428Z,98351.53
2023-03-05T05:49:45.194Z,98347.19
2023-03-05T05:52:12.356Z,98338.63
2023-03-05T05:54:39.328Z,98337.69
2023-03-05T05:57:06.698Z,98342.78
2023-03-05T05:59:33.725Z,98343.69
2023-03-05T06:02:00.529Z,98341.16
2023-03-05T06:04:27.402Z,98345.44
2023-03-05T06:06:54.016Z,98335.09
2023-03-05T06:09:20.920Z,98342.78
2023-03-05T06:11:47.631Z,98342.81
2023-03-05T06:14:14.562Z,98345.44
2023-03-05T06:16:42.361Z,98348.91
2023-03-05T06:19:12.241Z,98342.88
2023-03-05T06:21:39.474Z,98345.41
2023-03-05T06:24:06.420Z,98347.19
2023-03-05T06:26:33.320Z,98343.66
2023-03-05T06:29:00.020Z,98347.13
2023-03-05T06:31:28.289Z,98349.72
2023-03-05T06:33:57.650Z,98345.44
2023-03-05T06:36:25.983Z,98348.94
2023-03-05T06:38:54.052Z,98346.34
2023-03-05T06:41:23.269Z,98348.91
2023-03-05T06:43:49.946Z,98345.31
2023-03-05T06:46:22.769Z,98348.75
2023-03-05T06:48:49.853Z,98349.63
2023-03-05T06:51:18.688Z,98345.31
2023-03-05T06:53:49.001Z,98341.84
2023-03-05T06:56:17.103Z,98337.53
2023-03-05T06:58:46.103Z,98336.69
2023-03-05T07:01:14.109Z,98334.00
2023-03-05T07:03:41.189Z,98329.00
2023-03-05T07:06:10.689Z,98329.94
2023-03-05T07:08:38.128Z,98328.94
2023-03-05T07:11:10.036Z,98323.00
2023-03-05T07:13:36.949Z,98328.25
2023-03-05T07:16:13.705Z,98319.59
2023-03-05T07:18:40.496Z,98319.66
2023-03-05T07:21:08.500Z,98321.44
2023-03-05T07:23:36.086Z,98310.25
2023-03-05T07:26:04.398Z,98312.88
2023-03-05T07:28:31.338Z,98315.50
2023-03-05T07:30:59.305Z,98323.34
2023-03-05T07:33:26.862Z,98319.06
2023-03-05T07:35:53.925Z,98316.44
2023-03-05T07:38:21.218Z,98309.53
2023-03-05T07:40:47.991Z,98315.63
2023-03-05T07:43:14.766Z,98313.03
2023-03-05T07:45:45.055Z,98314.78
2023-03-05T07:48:18.247Z,98301.00
2023-03-05T07:50:45.002Z,98307.91
2023-03-05T07:53:11.796Z,98305.41
2023-03-05T07:55:48.021Z,98309.69
2023-03-05T07:58:14.711Z,98314.94
2023-03-05T08:00:41.679Z,98315.84
2023-03-05T08:03:08.435Z,98307.19
2023-03-05T08:05:35.110Z,98315.03
2023-03-05T08:08:01.792Z,98314.19
2023-03-05T08:10:28.445Z,98312.47
2023-03-05T08:12:55.092Z,98302.94
2023-03-05T08:15:21.831Z,98309.03
2023-03-05T08:17:48.679Z,98309.94
2023-03-05T08:20:15.383Z,98301.28
2023-03-05T08:22:42.150Z,98297.78
2023-03-05T08:25:10.138Z,98303.78
2023-03-05T08:27:44.498Z,98297.69
2023-03-05T08:30:14.400Z,98297.69
2023-03-05T08:32:41.154Z,98295.91
2023-03-05T08:35:09.717Z,98290.72
2023-03-05T08:37:37.067Z,98292.44
2023-03-05T08:40:05.257Z,98290.75
2023-03-05T08:42:31.983Z,98292.53
2023-03-05T08:44:58.582Z,98289.06
2023-03-05T08:47:26.719Z,98293.44
2023-03-05T08:49:57.350Z,98283.09
2023-03-05T08:52:24.791Z,98290.00
2023-03-05T08:54:51.483Z,98277.94
2023-03-05T08:57:18.216Z,98292.69
2023-03-05T08:59:44.952Z,98287.56
2023-03-05T09:02:13.620Z,98283.22
2023-03-05T09:04:40.625Z,98285.88
2023-03-05T09:07:09.022Z,98278.13
2023-03-05T09:09:36.562Z,98278.94
2023-03-05T09:12:03.382Z,98282.44
2023-03-05T09:14:30.252Z,98280.72
2023-03-05T09:16:58.240Z,98279.84
2023-03-05T09:19:25.111Z,98274.66
2023-03-05T09:21:51.614Z,98270.31
2023-03-05T09:24:18.108Z,98271.19
2023-03-05T09:26:44.687Z,98259.94
2023-03-05T09:29:12.519Z,98256.47
2023-03-05T09:31:39.790Z,98255.56
2023-03-05T09:34:08.296Z,98262.50
2023-03-05T09:36:35.342Z,98259.91
2023-03-05T09:39:02.378Z,98262.50
2023-03-05T09:41:36.049Z,98255.56
2023-03-05T09:44:11.612Z,98242.56
2023-03-05T09:47:14.776Z,98253.00
2023-03-05T09:49:55.528Z,98243.44
2023-03-05T09:52:27.319Z,98244.34
2023-03-05T09:54:57.250Z,98246.06
2023-03-05T09:57:41.448Z,98237.38
2023-03-05T10:00:38.976Z,98234.75
2023-03-05T10:03:12.384Z,98226.94
2023-03-05T10:05:53.334Z,98227.78
2023-03-05T10:08:25.344Z,98224.19
2023-03-05T10:10:54.252Z,98220.75
2023-03-05T10:13:43.051Z,98214.59
2023-03-05T10:16:46.171Z,98214.50
2023-03-05T10:19:51.053Z,98216.22
2023-03-05T10:22:28.173Z,98206.66
2023-03-05T10:25:20.469Z,98195.28
2023-03-05T10:27:54.074Z,98184.91
2023-03-05T10:30:27.222Z,98195.50
2023-03-05T10:33:26.134Z,98190.31
2023-03-05T10:36:20.955Z,98185.13
2023-03-05T10:39:00.119Z,98193.84
2023-03-05T10:41:37.609Z,98181.78
2023-03-05T10:44:26.656Z,98179.06
2023-03-05T10:46:58.224Z,98179.81
2023-03-05T10:49:36.593Z,98172.72
2023-03-05T10:52:13.679Z,98172.50
2023-03-05T10:54:42.924Z,98167.28
2023-03-05T10:57:23.100Z,98170.81
2023-03-05T10:59:55.234Z,98163.16
2023-03-05T11:02:23.104Z,98162.34
2023-03-05T11:04:50.970Z,98165.91
2023-03-05T11:07:17.582Z,98161.53
2023-03-05T11:10:02.121Z,98167.66
2023-03-05T11:12:37.744Z,98157.31
2023-03-05T11:15:10.384Z,98152.03
2023-03-05T11:17:44.792Z,98157.16
2023-03-05T11:20:29.273Z,98148.34
2023-03-05T11:23:06.619Z,98141.66
2023-03-05T11:25:35.012Z,98147.66
2023-03-05T11:28:03.335Z,98143.34
2023-03-05T11:30:35.753Z,98138.22
2023-03-05T11:33:23.813Z,98125.31
2023-03-05T11:35:52.162Z,98122.59
2023-03-05T11:38:23.875Z,98117.41
2023-03-05T11:40:53.393Z,98126.00
2023-03-05T11:43:23.040Z,98123.44
2023-03-05T11:45:54.674Z,98120.75
2023-03-05T11:48:28.898Z,98114.81
2023-03-05T11:51:01.399Z,98115.63
2023-03-05T11:53:38.866Z,98118.28
2023-03-05T11:56:19.035Z,98117.44
2023-03-05T11:58:55.993Z,98111.28
2023-03-05T12:01:25.663Z,98113.00
2023-03-05T12:03:53.414Z,98103.66
2023-03-05T12:06:29.764Z,98096.66
2023-03-05T12:09:00.218Z,98100.84
2023-03-05T12:11:32.408Z,98096.50
2023-03-05T12:14:19.436Z,98091.44
2023-03-05T12:16:52.150Z,98090.44
2023-03-05T12:19:32.987Z,98085.31
2023-03-05T12:21:59.768Z,98077.41
2023-03-05T12:24:28.409Z,98072.19
2023-03-05T12:27:04.731Z,98071.31
2023-03-05T12:29:42.117Z,98083.69
2023-03-05T12:32:44.271Z,98074.19
2023-03-05T12:35:37.246Z,98077.81
2023-03-05T12:38:39.791Z,98077.84
2023-03-05T12:41:26.819Z,98081.28
2023-03-05T12:44:06.365Z,98076.16
2023-03-05T12:46:36.264Z,98064.84
2023-03-05T12:49:18.282Z,98058.69
2023-03-05T12:51:46.975Z,98065.75
2023-03-05T12:54:29.490Z,98048.34
2023-03-05T12:56:59.371Z,98055.28
2023-03-05T12:59:34.674Z,98044.91
2023-03-05T13:02:10.016Z,98048.38
2023-03-05T13:04:46.489Z,98035.28
2023-03-05T13:07:18.216Z,98042.25
2023-03-05T13:09:56.486Z,98030.19
2023-03-05T13:12:26.472Z,98030.09
2023-03-05T13:15:05.603Z,98036.25
2023-03-05T13:17:40.265Z,98039.72
2023-03-05T13:20:37.747Z,98022.31
2023-03-05T13:23:05.649Z,98024.09
2023-03-05T13:25:32.320Z,98027.56
2023-03-05T13:28:11.876Z,98030.97
2023-03-05T13:30:38.757Z,98024.09
2023-03-05T13:33:05.960Z,98030.94
2023-03-05T13:35:33.660Z,98028.38
2023-03-05T13:38:02.358Z,98024.06
2023-03-05T13:40:32.273Z,98029.38
2023-03-05T13:43:20.102Z,98031.16
2023-03-05T13:45:55.157Z,98020.75
2023-03-05T13:48:22.376Z,98022.59
2023-03-05T13:50:59.497Z,98024.41
2023-03-05T13:53:31.835Z,98024.38
2023-03-05T13:56:07.707Z,98026.16
2023-03-05T13:58:41.778Z,98020.91
2023-03-05T14:01:38.245Z,98015.69
2023-03-05T14:04:36.125Z,98013.94
2023-03-05T14:07:30.150Z,98003.47
2023-03-05T14:09:56.938Z,98002.50
2023-03-05T14:12:32.630Z,97994.72
2023-03-05T14:15:02.215Z,97992.88
2023-03-05T14:17:30.137Z,97989.41
2023-03-05T14:20:19.163Z,97978.16
2023-03-05T14:22:48.472Z,97977.28
2023-03-05T14:25:44.580Z,97966.81
2023-03-05T14:28:16.743Z,97966.88
2023-03-05T14:30:52.550Z,97966.75
2023-03-05T14:33:28.486Z,97965.03
2023-03-05T14:35:57.724Z,97960.78
2023-03-05T14:38:28.960Z,97956.41
2023-03-05T14:40:55.707Z,97950.38
2023-03-05T14:43:22.357Z,97947.75
2023-03-05T14:45:48.958Z,97945.09
2023-03-05T14:48:18.768Z,97939.06
2023-03-05T14:50:53.186Z,97937.41
2023-03-05T14:53:24.067Z,97930.47
2023-03-05T14:55:56.934Z,97935.72
2023-03-05T14:58:27.637Z,97928.84
2023-03-05T15:00:55.550Z,97931.34
2023-03-05T15:03:23.064Z,97929.59
2023-03-05T15:05:56.822Z,97923.53
2023-03-05T15:08:25.248Z,97919.16
2023-03-05T15:10:52.813Z,97921.72
2023-03-05T15:13:20.046Z,97911.25
2023-03-05T15:15:48.032Z,97909.47
2023-03-05T15:18:17.652Z,97906.00
2023-03-05T15:20:46.372Z,97894.75
2023-03-05T15:23:13.124Z,97889.56
2023-03-05T15:25:40.096Z,97893.94
2023-03-05T15:28:07.391Z,97892.28
2023-03-05T15:30:37.218Z,97895.69
2023-03-05T15:33:06.790Z,97889.69
2023-03-05T15:35:33.664Z,97894.00
2023-03-05T15:38:00.571Z,97890.53
2023-03-05T15:40:28.519Z,97890.53
2023-03-05T15:42:56.712Z,97886.19
2023-03-05T15:45:23.414Z,97884.34
2023-03-05T15:47:51.887Z,97877.41
2023-03-05T15:50:20.461Z,97881.78
2023-03-05T15:52:49.256Z,97873.06
2023-03-05T15:55:16.176Z,97877.47
2023-03-05T15:57:45.010Z,97877.47
2023-03-05T16:00:13.200Z,97876.59
2023-03-05T16:02:39.892Z,97874.09
2023-03-05T16:05:07.824Z,97872.41
2023-03-05T16:07:38.909Z,97876.72
2023-03-05T16:10:07.045Z,97871.66
2023-03-05T16:12:40.915Z,97871.72
2023-03-05T16:15:13.578Z,97876.13
2023-03-05T16:17:44.017Z,97870.94
2023-03-05T16:20:12.468Z,97861.38
2023-03-05T16:22:39.147Z,97860.56
2023-03-05T16:25:06.656Z,97862.31
2023-03-05T16:27:33.758Z,97865.78
2023-03-05T16:30:00.308Z,97857.97
2023-03-05T16:32:27.015Z,97861.47
2023-03-05T16:34:53.786Z,97856.28
2023-03-05T16:37:23.218Z,97851.09
2023-03-05T16:39:50.727Z,97849.41
2023-03-05T16:42:17.523Z,97849.50
2023-03-05T16:44:44.444Z,97850.38
2023-03-05T16:47:12.285Z,97857.31
2023-03-05T16:49:39.783Z,97859.03
2023-03-05T16:52:18.303Z,97860.81
2023-03-05T16:54:46.119Z,97863.44
2023-03-05T16:57:12.802Z,97854.84
2023-03-05T16:59:39.551Z,97856.56
2023-03-05T17:02:06.406Z,97862.63
2023-03-05T17:04:33.781Z,97857.47
2023-03-05T17:07:00.270Z,97860.06
2023-03-05T17:09:26.911Z,97870.47
2023-03-05T17:11:54.479Z,97849.75
2023-03-05T17:14:22.018Z,97850.59
2023-03-05T17:16:49.015Z,97862.72
2023-03-05T17:19:15.770Z,97858.34
2023-03-05T17:21:42.898Z,97856.63
2023-03-05T17:24:10.201Z,97861.84
2023-03-05T17:26:37.571Z,97856.63
2023-03-05T17:29:04.583Z,97865.28
2023-03-05T17:31:31.258Z,97856.63
2023-03-05T17:33:57.992Z,97854.94
2023-03-05T17:36:25.482Z,97858.38
2023-03-05T17:38:54.242Z,97856.69
2023-03-05T17:41:21.250Z,97858.41
2023-03-05T17:43:47.912Z,97853.22
2023-03-05T17:46:15.645Z,97861.88
2023-03-05T17:48:42.763Z,97857.53
2023-03-05T17:51:12.191Z,97852.34
2023-03-05T17:53:40.492Z,97846.31
2023-03-05T17:56:12.271Z,97851.53
2023-03-05T17:58:39.881Z,97855.81
2023-03-05T18:01:07.902Z,97848.03
2023-03-05T18:03:35.715Z,97846.34
2023-03-05T18:06:02.529Z,97850.66
2023-03-05T18:08:29.248Z,97841.16
2023-03-05T18:10:55.894Z,97845.50
2023-03-05T18:13:22.562Z,97846.34
2023-03-05T18:15:49.084Z,97840.25
2023-03-05T18:18:17.652Z,97838.53
2023-03-05T18:20:45.119Z,97832.53
2023-03-05T18:23:11.859Z,97829.00
2023-03-05T18:25:38.419Z,97835.06
2023-03-05T18:28:09.867Z,97826.44
2023-03-05T18:30:37.335Z,97820.41
2023-03-05T18:33:04.393Z,97811.78
2023-03-05T18:35:32.316Z,97815.25
2023-03-05T18:37:59.563Z,97813.50
2023-03-05T18:40:29.035Z,97804.84
2023-03-05T18:42:55.728Z,97811.75
2023-03-05T18:45:23.146Z,97823.91
2023-03-05T18:47:54.178Z,97834.31
2023-03-05T18:50:22.019Z,97824.81
2023-03-05T18:52:48.623Z,97823.06
2023-03-05T18:55:22.040Z,97811.81
2023-03-05T18:57:49.549Z,97816.16
2023-03-05T19:00:18.359Z,97818.75
2023-03-05T19:02:45.079Z,97810.97
2023-03-05T19:05:14.071Z,97816.19
2023-03-05T19:07:41.005Z,97811.88
2023-03-05T19:10:10.842Z,97813.59
2023-03-05T19:12:49.226Z,97807.56
2023-03-05T19:15:16.856Z,97802.41
2023-03-05T19:17:43.470Z,97801.53
2023-03-05T19:20:14.212Z,97798.09
2023-03-05T19:22:40.718Z,97800.69
2023-03-05T19:25:08.628Z,97803.25
2023-03-05T19:27:35.631Z,97802.41
2023-03-05T19:30:02.518Z,97797.25
2023-03-05T19:32:29.371Z,97798.06
2023-03-05T19:34:58.128Z,97788.56
2023-03-05T19:37:25.292Z,97798.06
2023-03-05T19:39:52.085Z,97794.66
2023-03-05T19:42:18.890Z,97798.09
2023-03-05T19:44:45.831Z,97800.69
2023-03-05T19:47:12.482Z,97797.19
2023-03-05T19:49:39.106Z,97789.44
2023-03-05T19:52:06.434Z,97795.47
2023-03-05T19:54:33.349Z,97795.50
2023-03-05T19:57:00.250Z,97791.19
2023-03-05T19:59:27.009Z,97786.88
2023-03-05T20:01:53.727Z,97786.00
2023-03-05T20:04:22.730Z,97782.53
2023-03-05T20:06:49.293Z,97782.53
2023-03-05T20:09:16.521Z,97777.34
2023-03-05T20:11:43.715Z,97773.03
2023-03-05T20:14:13.123Z,97772.19
2023-03-05T20:16:39.836Z,97768.72
2023-03-05T20:19:07.753Z,97758.38
2023-03-05T20:21:37.361Z,97762.69
2023-03-05T20:24:09.665Z,97762.69
2023-03-05T20:26:38.559Z,97763.56
2023-03-05T20:29:05.668Z,97760.94
2023-03-05T20:31:35.398Z,97765.28
2023-03-05T20:34:02.133Z,97760.97
2023-03-05T20:36:28.744Z,97766.13
2023-03-05T20:38:55.979Z,97767.03
2023-03-05T20:41:22.886Z,97760.13
2023-03-05T20:43:51.440Z,97758.38
2023-03-05T20:46:22.401Z,97749.75
2023-03-05T20:48:51.645Z,97747.19
2023-03-05T20:51:28.007Z,97746.28
2023-03-05T20:53:58.776Z,97737.66
2023-03-05T20:56:28.038Z,97735.94
2023-03-05T20:58:55.868Z,97733.34
2023-03-05T21:01:22.672Z,97736.78
2023-03-05T21:03:49.967Z,97728.16
2023-03-05T21:06:16.912Z,97733.34
2023-03-05T21:08:44.830Z,97727.28
2023-03-05T21:11:12.602Z,97731.63
2023-03-05T21:13:39.534Z,97733.34
2023-03-05T21:16:08.402Z,97726.47
2023-03-05T21:18:35.909Z,97737.66
2023-03-05T21:21:03.135Z,97740.22
2023-03-05T21:23:29.909Z,97732.47
2023-03-05T21:25:56.610Z,97737.63
2023-03-05T21:28:23.315Z,97728.13
2023-03-05T21:30:52.366Z,97730.72
2023-03-05T21:33:23.334Z,97727.25
2023-03-05T21:35:54.681Z,97725.53
2023-03-05T21:38:23.236Z,97721.22
2023-03-05T21:40:51.791Z,97728.09
2023-03-05T21:43:21.523Z,97728.94
2023-03-05T21:45:49.424Z,97728.97
2023-03-05T21:48:16.338Z,97728.97
2023-03-05T21:50:45.074Z,97727.22
2023-03-05T21:53:12.964Z,97733.25
2023-03-05T21:55:59.089Z,97722.03
2023-03-05T21:58:25.798Z,97719.47
2023-03-05T22:00:52.553Z,97716.88
2023-03-05T22:03:20.103Z,97712.56
2023-03-05T22:05:46.726Z,97700.50
2023-03-05T22:08:13.481Z,97705.69
2023-03-05T22:10:41.556Z,97692.75
2023-03-05T22:13:10.216Z,97686.66
2023-03-05T22:15:51.593Z,97683.22
2023-03-05T22:18:24.024Z,97678.91
2023-03-05T22:20:51.609Z,97674.59
2023-03-05T22:23:19.463Z,97677.19
2023-03-05T22:25:46.165Z,97670.31
2023-03-05T22:28:13.832Z,97667.72
2023-03-05T22:30:44.283Z,97663.41
2023-03-05T22:33:11.319Z,97661.72
2023-03-05T22:35:41.987Z,97653.94
2023-03-05T22:38:10.240Z,97658.28
2023-03-05T22:40:40.246Z,97647.94
2023-03-05T22:43:06.945Z,97650.50
2023-03-05T22:45:33.764Z,97647.06
2023-03-05T22:48:00.411Z,97646.19
2023-03-05T22:50:27.456Z,97644.47
2023-03-05T22:52:54.141Z,97634.13
2023-03-05T22:55:21.539Z,97634.13
2023-03-05T22:57:48.833Z,97634.13
2023-03-05T23:00:21.725Z,97623.78
2023-03-05T23:02:48.356Z,97619.47
2023-03-05T23:05:15.030Z,97616.03
2023-03-05T23:07:44.069Z,97614.28
2023-03-05T23:10:24.368Z,97615.16
2023-03-05T23:12:53.947Z,97615.16
2023-03-05T23:15:27.838Z,97614.28
2023-03-05T23:17:54.712Z,97616.03
2023-03-05T23:20:26.167Z,97611.72
2023-03-05T23:22:56.272Z,97605.69
2023-03-05T23:25:25.925Z,97599.66
2023-03-05T23:27:52.798Z,97606.53
2023-03-05T23:30:24.178Z,97598.78
2023-03-05T23:33:02.909Z,97599.63
2023-03-05T23:35:36.238Z,97596.22
2023-03-05T23:38:06.478Z,97597.06
2023-03-05T23:40:39.813Z,97601.38
2023-03-05T23:43:06.534Z,97587.56
2023-03-05T23:45:33.463Z,97587.56
2023-03-05T23:48:00.229Z,97587.56
2023-03-05T23:50:29.868Z,97591.88
2023-03-05T23:52:57.106Z,97588.44
2023-03-05T23:55:32.852Z,97591.03
2023-03-05T23:57:59.498Z,97589.31
